Portada
METAR-TAF:

METAR-TAF

Aeropuertos :

Bucarest, Rumania

Aeropuerto Internacional de Bucarest-Henri Coandă

latitud: 44-33N, longitud: 026-06E, altitud: 95 m

Observación

El informe se hizo hace 28 minutos, a las 19:00 UTC
Viento 4 kt del norte
Temperatura 25°C
Humedad 44%
Presión 1017 hPa
Visibilidad 10 km o más
sin nubes por debajo de 1500 m y sin presencia de cumulonimbus.

METAR: LROP 171900Z 35004KT CAVOK 25/12 Q1017 NOSIG

Hora: 22:28 (19:28 UTC)

Pronóstico

El informe se hizo hace 2 horas y 28 minutos, a las 17:00 UTC
Pronóstico válido del 17 a las 18 UTC al 18 a las 18 UTC
Viento 6 kt del noreste
Visibilidad 10 km o más
sin nubes por debajo de 1500 m y sin presencia de cumulonimbus.

TAF: LROP 171700Z 1718/1818 04006KT CAVOK

Observaciones y pronósticos meteorológicos de más de 4000 aeropuertos (mensajes METAR y TAF).

Los puntos amarillos y rojos representan las estaciones disponibles.

Ponga el ratón en el punto deseado para ver el nombre de la estación.

Haga clic para ver las observaciones y los pronósticos meteorológicos.

Para cambiar el mapa : haga clic en los botones verdes con una cruz de color negro para hacer un zoom, en el botón verde con un guión para alejar o en las flechas verdes para mapas adyacentes.


METAR-TAF: